Destinations Belfast International Airport

Belfast International Airport (EGAA / BFS)

Flights to Belfast International Airport

Flight number From ETE Dispatch
SPY-2526 EGPH Edinburgh Airport 01:05

Flights from Belfast International Airport

Flight number To ETE Dispatch
SPY-2527 EGPH Edinburgh Airport 01:05
About

Belfast International Airport facts

Belfast International Airport is located in Belfast at an elevation of 81.7 meters or 268 feet.

Currently, Speedy Airlines serves 2 flights to and from Belfast International Airport.

Detailed airport info

Route map

Weather

Current weather

METAR

METAR

Metar data retrieved Sunday, 21 July 2024 at 20:25 UTC

EGAA 211950Z AUTO 14005KT 8000 -RA FEW026/// OVC038/// //////TCU 14/13 Q1009
Wind Temperature
5 kt 14c